createdAt,value
2023-02-01T00:01:10.037Z,110.03
2023-02-01T00:03:37.919Z,108.90
2023-02-01T00:06:05.480Z,109.87
2023-02-01T00:08:33.321Z,109.47
2023-02-01T00:11:08.774Z,108.97
2023-02-01T00:13:41.887Z,108.60
2023-02-01T00:16:20.473Z,109.37
2023-02-01T00:18:51.996Z,109.17
2023-02-01T00:21:21.782Z,109.80
2023-02-01T00:23:49.280Z,108.60
2023-02-01T00:26:32.130Z,109.27
2023-02-01T00:28:59.785Z,110.10
2023-02-01T00:31:29.368Z,109.47
2023-02-01T00:33:56.565Z,109.47
2023-02-01T00:36:24.008Z,109.10
2023-02-01T00:38:51.513Z,108.90
2023-02-01T00:41:22.182Z,109.67
2023-02-01T00:43:50.913Z,109.27
2023-02-01T00:46:21.245Z,109.80
2023-02-01T00:48:49.499Z,109.37
2023-02-01T00:51:24.616Z,110.20
2023-02-01T00:53:52.099Z,110.10
2023-02-01T00:56:19.355Z,110.00
2023-02-01T00:58:46.776Z,110.00
2023-02-01T01:01:21.057Z,109.77
2023-02-01T01:03:54.805Z,110.00
2023-02-01T01:06:27.458Z,108.73
2023-02-01T01:09:01.824Z,109.87
2023-02-01T01:11:33.472Z,110.13
2023-02-01T01:14:01.796Z,109.70
2023-02-01T01:16:32.527Z,109.80
2023-02-01T01:19:01.807Z,110.00
2023-02-01T01:21:30.247Z,109.77
2023-02-01T01:23:57.638Z,109.67
2023-02-01T01:26:28.960Z,110.10
2023-02-01T01:28:59.569Z,109.77
2023-02-01T01:31:27.738Z,109.93
2023-02-01T01:33:59.295Z,109.97
2023-02-01T01:36:29.134Z,109.47
2023-02-01T01:38:56.514Z,109.73
2023-02-01T01:41:32.101Z,108.70
2023-02-01T01:44:08.679Z,110.10
2023-02-01T01:46:38.639Z,109.87
2023-02-01T01:49:20.124Z,109.20
2023-02-01T01:51:58.975Z,108.50
2023-02-01T01:54:34.321Z,110.17
2023-02-01T01:57:17.211Z,110.27
2023-02-01T01:59:54.275Z,110.67
2023-02-01T02:02:21.877Z,109.97
2023-02-01T02:04:49.527Z,109.30
2023-02-01T02:07:26.548Z,109.53
2023-02-01T02:10:00.807Z,109.97
2023-02-01T02:12:29.469Z,110.20
2023-02-01T02:14:56.886Z,109.50
2023-02-01T02:18:02.125Z,109.27
2023-02-01T02:21:16.777Z,108.30
2023-02-01T02:24:31.865Z,110.00
2023-02-01T02:27:24.707Z,108.77
2023-02-01T02:30:41.951Z,109.20
2023-02-01T02:33:37.811Z,109.83
2023-02-01T02:36:26.969Z,109.97
2023-02-01T02:39:21.469Z,110.30
2023-02-01T02:42:35.181Z,108.77
2023-02-01T02:45:50.110Z,109.87
2023-02-01T02:48:21.736Z,109.00
2023-02-01T02:51:41.567Z,109.37
2023-02-01T02:54:36.103Z,109.13
2023-02-01T02:57:29.187Z,109.90
2023-02-01T03:00:20.743Z,109.87
2023-02-01T03:03:08.561Z,109.97
2023-02-01T03:05:40.607Z,110.10
2023-02-01T03:08:22.839Z,109.77
2023-02-01T03:11:11.653Z,109.97
2023-02-01T03:13:54.671Z,109.37
2023-02-01T03:16:49.481Z,109.97
2023-02-01T03:19:30.872Z,109.03
2023-02-01T03:22:14.857Z,110.37
2023-02-01T03:24:50.181Z,110.00
2023-02-01T03:27:36.951Z,110.37
2023-02-01T03:30:42.932Z,109.70
2023-02-01T03:33:23.444Z,109.67
2023-02-01T03:36:20.581Z,108.93
2023-02-01T03:39:27.837Z,109.07
2023-02-01T03:42:01.911Z,109.07
2023-02-01T03:45:08.386Z,110.20
2023-02-01T03:47:44.199Z,110.00
2023-02-01T03:50:17.942Z,109.87
2023-02-01T03:53:25.298Z,110.53
2023-02-01T03:55:55.201Z,109.17
2023-02-01T03:58:24.697Z,109.83
2023-02-01T04:01:00.388Z,110.17
2023-02-01T04:03:30.216Z,109.90
2023-02-01T04:05:57.548Z,110.40
2023-02-01T04:08:28.002Z,109.87
2023-02-01T04:10:54.999Z,109.77
2023-02-01T04:13:21.993Z,110.40
2023-02-01T04:15:50.715Z,110.30
2023-02-01T04:18:17.752Z,110.23
2023-02-01T04:20:45.885Z,109.57
2023-02-01T04:23:16.730Z,110.40
2023-02-01T04:25:43.903Z,109.57
2023-02-01T04:28:11.036Z,109.87
2023-02-01T04:30:39.191Z,108.83
2023-02-01T04:33:06.277Z,109.87
2023-02-01T04:35:33.455Z,110.07
2023-02-01T04:38:01.477Z,110.10
2023-02-01T04:40:28.500Z,109.97
2023-02-01T04:42:55.507Z,109.87
2023-02-01T04:45:22.736Z,110.70
2023-02-01T04:47:49.828Z,110.23
2023-02-01T04:50:17.266Z,109.87
2023-02-01T04:52:46.251Z,110.37
2023-02-01T04:55:14.510Z,110.17
2023-02-01T04:57:41.618Z,108.83
2023-02-01T05:00:10.841Z,108.60
2023-02-01T05:02:38.619Z,110.30
2023-02-01T05:05:06.544Z,110.27
2023-02-01T05:07:33.522Z,110.17
2023-02-01T05:10:00.523Z,109.87
2023-02-01T05:12:46.626Z,110.03
2023-02-01T05:15:16.605Z,109.77
2023-02-01T05:17:43.632Z,109.47
2023-02-01T05:20:11.582Z,110.17
2023-02-01T05:22:38.687Z,109.37
2023-02-01T05:25:08.242Z,110.07
2023-02-01T05:27:35.829Z,108.57
2023-02-01T05:30:06.270Z,110.10
2023-02-01T05:32:33.311Z,110.00
2023-02-01T05:35:00.777Z,110.07
2023-02-01T05:37:27.955Z,109.30
2023-02-01T05:39:54.936Z,110.17
2023-02-01T05:42:22.005Z,109.03
2023-02-01T05:44:49.023Z,110.30
2023-02-01T05:47:16.104Z,110.50
2023-02-01T05:49:43.078Z,109.37
2023-02-01T05:52:10.058Z,110.10
2023-02-01T05:54:37.028Z,109.73
2023-02-01T05:57:04.224Z,109.47
2023-02-01T05:59:31.245Z,109.77
2023-02-01T06:01:58.247Z,109.87
2023-02-01T06:04:25.452Z,109.37
2023-02-01T06:06:52.503Z,109.57
2023-02-01T06:09:19.594Z,110.27
2023-02-01T06:11:47.091Z,109.97
2023-02-01T06:14:20.194Z,109.87
2023-02-01T06:16:47.505Z,109.67
2023-02-01T06:19:18.500Z,109.97
2023-02-01T06:21:45.671Z,110.40
2023-02-01T06:24:13.305Z,109.90
2023-02-01T06:26:41.041Z,109.00
2023-02-01T06:29:11.721Z,109.17
2023-02-01T06:31:38.806Z,109.67
2023-02-01T06:34:05.831Z,109.00
2023-02-01T06:36:33.266Z,108.70
2023-02-01T06:39:00.760Z,109.67
2023-02-01T06:41:29.558Z,109.47
2023-02-01T06:43:57.233Z,109.00
2023-02-01T06:46:24.606Z,108.97
2023-02-01T06:48:51.977Z,109.47
2023-02-01T06:51:30.281Z,109.60
2023-02-01T06:53:58.177Z,109.67
2023-02-01T06:56:26.404Z,109.90
2023-02-01T06:58:53.602Z,109.63
2023-02-01T07:01:21.050Z,109.87
2023-02-01T07:03:51.728Z,109.90
2023-02-01T07:06:19.830Z,109.47
2023-02-01T07:08:46.859Z,109.80
2023-02-01T07:11:16.718Z,108.60
2023-02-01T07:13:44.663Z,110.07
2023-02-01T07:16:17.911Z,109.80
2023-02-01T07:18:45.716Z,109.67
2023-02-01T07:21:13.569Z,109.10
2023-02-01T07:23:40.659Z,108.70
2023-02-01T07:26:13.339Z,110.07
2023-02-01T07:28:41.745Z,109.77
2023-02-01T07:31:18.970Z,110.17
2023-02-01T07:33:46.829Z,109.90
2023-02-01T07:36:17.580Z,110.17
2023-02-01T07:38:45.681Z,109.77
2023-02-01T07:41:13.176Z,109.80
2023-02-01T07:43:40.749Z,108.87
2023-02-01T07:46:09.817Z,110.27
2023-02-01T07:48:37.317Z,109.00
2023-02-01T07:51:14.368Z,110.10
2023-02-01T07:53:43.377Z,109.57
2023-02-01T07:56:28.683Z,109.73
2023-02-01T07:58:56.923Z,110.10
2023-02-01T08:01:28.068Z,110.20
2023-02-01T08:04:03.111Z,109.50
2023-02-01T08:06:35.382Z,109.73
2023-02-01T08:09:04.335Z,109.97
2023-02-01T08:11:32.084Z,109.00
2023-02-01T08:14:00.506Z,109.73
2023-02-01T08:16:28.084Z,109.97
2023-02-01T08:18:55.682Z,109.83
2023-02-01T08:21:39.407Z,110.20
2023-02-01T08:24:11.172Z,110.27
2023-02-01T08:26:38.652Z,110.10
2023-02-01T08:29:08.525Z,110.20
2023-02-01T08:31:36.358Z,110.37
2023-02-01T08:34:09.121Z,109.10
2023-02-01T08:36:36.405Z,109.80
2023-02-01T08:39:06.596Z,110.53
2023-02-01T08:41:33.642Z,110.50
2023-02-01T08:44:00.717Z,110.27
2023-02-01T08:46:28.043Z,109.70
2023-02-01T08:48:55.081Z,110.80
2023-02-01T08:51:24.423Z,109.50
2023-02-01T08:53:52.286Z,110.17
2023-02-01T08:56:20.690Z,110.17
2023-02-01T08:58:47.649Z,109.90
2023-02-01T09:03:44.252Z,110.70
2023-02-01T09:06:15.657Z,110.57
2023-02-01T09:08:43.685Z,109.77
2023-02-01T09:11:20.249Z,109.90
2023-02-01T09:13:48.992Z,109.50
2023-02-01T09:16:16.158Z,109.53
2023-02-01T09:18:55.497Z,110.37
2023-02-01T09:21:30.157Z,109.87
2023-02-01T09:23:57.159Z,110.50
2023-02-01T09:26:31.400Z,110.27
2023-02-01T09:29:01.057Z,110.73
2023-02-01T09:31:28.348Z,109.07
2023-02-01T09:33:55.939Z,110.23
2023-02-01T09:36:24.314Z,109.13
2023-02-01T09:38:53.339Z,110.07
2023-02-01T09:42:03.286Z,110.07
2023-02-01T09:44:44.687Z,110.13
2023-02-01T09:47:20.140Z,110.17
2023-02-01T09:50:10.777Z,111.03
2023-02-01T09:53:03.734Z,110.50
2023-02-01T09:55:43.741Z,110.70
2023-02-01T09:58:46.169Z,110.27
2023-02-01T10:01:24.512Z,109.77
2023-02-01T10:04:10.124Z,110.37
2023-02-01T10:07:21.808Z,110.37
2023-02-01T10:10:18.435Z,110.20
2023-02-01T10:13:00.241Z,109.73
2023-02-01T10:15:50.166Z,109.63
2023-02-01T10:18:41.311Z,109.90
2023-02-01T10:23:11.406Z,109.87
2023-02-01T10:25:56.164Z,110.10
2023-02-01T10:28:26.049Z,110.37
2023-02-01T10:30:59.609Z,110.60
2023-02-01T10:33:36.228Z,110.87
2023-02-01T10:36:31.289Z,110.13
2023-02-01T10:39:00.986Z,111.27
2023-02-01T10:41:38.413Z,111.13
2023-02-01T10:44:17.185Z,110.77
2023-02-01T10:46:44.980Z,111.20
2023-02-01T10:49:27.680Z,110.53
2023-02-01T10:52:22.446Z,110.77
2023-02-01T10:54:49.461Z,111.27
2023-02-01T10:57:30.499Z,110.70
2023-02-01T10:59:57.988Z,110.90
2023-02-01T11:02:34.344Z,110.17
2023-02-01T11:05:11.307Z,109.57
2023-02-01T11:07:40.848Z,111.20
2023-02-01T11:10:36.890Z,110.47
2023-02-01T11:13:06.243Z,110.80
2023-02-01T11:15:33.214Z,111.00
2023-02-01T11:18:26.074Z,112.07
2023-02-01T11:20:55.836Z,112.00
2023-02-01T11:23:29.806Z,112.40
2023-02-01T11:26:02.218Z,112.07
2023-02-01T11:28:36.418Z,113.77
2023-02-01T11:31:11.956Z,114.07
2023-02-01T11:33:55.079Z,114.13
2023-02-01T11:36:28.704Z,113.47
2023-02-01T11:39:14.106Z,113.47
2023-02-01T11:42:05.763Z,114.10
2023-02-01T11:44:44.038Z,113.47
2023-02-01T11:47:32.762Z,113.27
2023-02-01T11:50:06.742Z,112.77
2023-02-01T11:53:06.903Z,112.60
2023-02-01T11:55:42.622Z,112.77
2023-02-01T11:59:08.876Z,111.67
2023-02-01T12:02:18.780Z,109.87
2023-02-01T12:05:20.407Z,112.47
2023-02-01T12:07:55.241Z,111.80
2023-02-01T12:10:27.978Z,113.00
2023-02-01T12:13:48.796Z,113.23
2023-02-01T12:16:58.435Z,112.90
2023-02-01T12:20:01.924Z,113.27
2023-02-01T12:23:15.228Z,113.43
2023-02-01T12:25:56.466Z,111.47
2023-02-01T12:29:27.690Z,110.63
2023-02-01T12:32:14.792Z,112.60
2023-02-01T12:35:20.263Z,112.10
2023-02-01T12:38:40.140Z,112.47
2023-02-01T12:41:50.827Z,112.47
2023-02-01T12:44:57.303Z,112.33
2023-02-01T12:47:46.977Z,111.53
2023-02-01T12:50:36.477Z,111.80
2023-02-01T12:53:36.558Z,112.47
2023-02-01T12:56:14.283Z,111.77
2023-02-01T12:58:52.148Z,112.00
2023-02-01T13:01:35.535Z,111.77
2023-02-01T13:04:24.532Z,112.33
2023-02-01T13:06:56.615Z,111.60
2023-02-01T13:09:56.159Z,111.90
2023-02-01T13:12:53.014Z,111.60
2023-02-01T13:15:40.186Z,112.17
2023-02-01T13:18:19.487Z,111.00
2023-02-01T13:21:13.029Z,112.27
2023-02-01T13:23:46.505Z,111.40
2023-02-01T13:26:13.829Z,110.00
2023-02-01T13:29:05.067Z,110.67
2023-02-01T13:32:06.018Z,111.67
2023-02-01T13:34:58.304Z,111.40
2023-02-01T13:38:00.341Z,111.67
2023-02-01T13:40:47.072Z,110.80
2023-02-01T13:43:24.541Z,112.20
2023-02-01T13:45:58.189Z,111.13
2023-02-01T13:48:53.634Z,111.77
2023-02-01T13:51:38.493Z,111.27
2023-02-01T13:54:06.892Z,111.17
2023-02-01T13:56:45.004Z,111.97
2023-02-01T13:59:45.998Z,111.80
2023-02-01T14:02:43.666Z,110.43
2023-02-01T14:05:32.899Z,111.27
2023-02-01T14:08:10.382Z,111.67
2023-02-01T14:11:47.810Z,111.00
2023-02-01T14:14:17.762Z,111.67
2023-02-01T14:17:11.182Z,110.70
2023-02-01T14:19:38.459Z,111.90
2023-02-01T14:22:25.078Z,111.30
2023-02-01T14:24:58.615Z,111.47
2023-02-01T14:27:36.710Z,111.57
2023-02-01T14:30:17.081Z,111.73
2023-02-01T14:32:47.453Z,111.77
2023-02-01T14:35:26.350Z,111.63
2023-02-01T14:38:07.899Z,111.10
2023-02-01T14:40:36.694Z,112.07
2023-02-01T14:43:03.743Z,112.07
2023-02-01T14:45:33.738Z,111.40
2023-02-01T14:48:07.019Z,111.67
2023-02-01T14:50:38.760Z,112.23
2023-02-01T14:53:17.780Z,112.67
2023-02-01T14:56:14.204Z,112.17
2023-02-01T14:59:05.018Z,111.30
2023-02-01T15:01:38.565Z,112.00
2023-02-01T15:04:18.937Z,111.37
2023-02-01T15:06:52.355Z,110.90
2023-02-01T15:09:45.618Z,111.90
2023-02-01T15:12:12.500Z,111.77
2023-02-01T15:15:23.845Z,111.77
2023-02-01T15:18:03.924Z,111.67
2023-02-01T15:20:34.483Z,111.67
2023-02-01T15:23:06.771Z,111.87
2023-02-01T15:25:39.302Z,112.07
2023-02-01T15:28:14.226Z,111.77
2023-02-01T15:30:56.163Z,111.03
2023-02-01T15:33:24.194Z,111.97
2023-02-01T15:35:56.462Z,111.67
2023-02-01T15:38:28.043Z,112.07
2023-02-01T15:41:16.432Z,111.20
2023-02-01T15:43:55.661Z,112.27
2023-02-01T15:46:43.904Z,111.77
2023-02-01T15:49:44.537Z,111.77
2023-02-01T15:52:33.223Z,111.00
2023-02-01T15:55:10.190Z,112.27
2023-02-01T15:57:42.913Z,111.57
2023-02-01T16:00:45.499Z,111.60
2023-02-01T16:03:44.806Z,112.47
2023-02-01T16:06:31.408Z,110.97
2023-02-01T16:09:13.977Z,112.07
2023-02-01T16:12:42.280Z,112.07
2023-02-01T16:15:09.596Z,111.50
2023-02-01T16:17:36.664Z,111.87
2023-02-01T16:20:03.873Z,111.50
2023-02-01T16:22:30.860Z,112.07
2023-02-01T16:24:58.274Z,109.13
2023-02-01T16:27:25.777Z,111.60
2023-02-01T16:29:56.659Z,111.97
2023-02-01T16:32:24.263Z,112.37
2023-02-01T16:34:51.795Z,112.37
2023-02-01T16:37:25.697Z,111.80
2023-02-01T16:39:52.983Z,111.43
2023-02-01T16:42:20.073Z,110.90
2023-02-01T16:44:47.081Z,112.13
2023-02-01T16:47:23.887Z,112.27
2023-02-01T16:49:51.365Z,111.87
2023-02-01T16:52:26.375Z,111.77
2023-02-01T16:54:53.811Z,112.37
2023-02-01T16:57:26.763Z,112.03
2023-02-01T16:59:53.789Z,112.17
2023-02-01T17:02:22.671Z,112.07
2023-02-01T17:04:49.904Z,110.80
2023-02-01T17:07:19.848Z,112.57
2023-02-01T17:09:48.333Z,111.13
2023-02-01T17:12:32.511Z,112.17
2023-02-01T17:15:01.004Z,111.97
2023-02-01T17:17:39.151Z,111.87
2023-02-01T17:20:08.350Z,111.77
2023-02-01T17:22:35.336Z,109.07
2023-02-01T17:25:02.549Z,112.37
2023-02-01T17:27:30.099Z,110.90
2023-02-01T17:29:57.170Z,111.27
2023-02-01T17:32:26.546Z,112.27
2023-02-01T17:34:53.922Z,110.97
2023-02-01T17:37:34.575Z,111.97
2023-02-01T17:40:02.407Z,110.93
2023-02-01T17:42:30.837Z,112.50
2023-02-01T17:45:37.627Z,112.17
2023-02-01T17:48:07.437Z,112.30
2023-02-01T17:50:37.896Z,112.30
2023-02-01T17:53:09.481Z,110.80
2023-02-01T17:55:43.867Z,112.40
2023-02-01T17:58:16.632Z,111.97
2023-02-01T18:00:46.237Z,111.87
2023-02-01T18:03:33.679Z,111.20
2023-02-01T18:06:01.365Z,112.13
2023-02-01T18:08:34.656Z,112.10
2023-02-01T18:11:03.452Z,112.00
2023-02-01T18:13:32.895Z,112.40
2023-02-01T18:16:01.875Z,111.20
2023-02-01T18:18:31.043Z,112.23
2023-02-01T18:20:59.254Z,112.17
2023-02-01T18:23:26.445Z,112.43
2023-02-01T18:25:53.546Z,111.97
2023-02-01T18:28:20.995Z,111.13
2023-02-01T18:30:51.468Z,112.27
2023-02-01T18:33:21.285Z,112.07
2023-02-01T18:35:49.070Z,112.50
2023-02-01T18:38:16.250Z,111.47
2023-02-01T18:41:01.346Z,111.77
2023-02-01T18:43:28.445Z,112.17
2023-02-01T18:45:55.702Z,111.93
2023-02-01T18:48:23.519Z,112.17
2023-02-01T18:50:52.071Z,111.80
2023-02-01T18:53:21.629Z,111.53
2023-02-01T18:55:49.620Z,112.27
2023-02-01T18:58:18.088Z,112.10
2023-02-01T19:00:47.133Z,109.10
2023-02-01T19:03:16.412Z,112.23
2023-02-01T19:05:43.405Z,111.87
2023-02-01T19:08:11.731Z,112.17
2023-02-01T19:10:42.345Z,112.07
2023-02-01T19:13:15.524Z,112.27
2023-02-01T19:15:43.683Z,111.17
2023-02-01T19:18:11.517Z,111.80
2023-02-01T19:20:41.308Z,112.27
2023-02-01T19:23:09.265Z,112.00
2023-02-01T19:25:37.499Z,112.10
2023-02-01T19:28:04.793Z,111.27
2023-02-01T19:30:31.968Z,112.47
2023-02-01T19:32:59.077Z,112.50
2023-02-01T19:35:26.374Z,112.07
2023-02-01T19:37:53.912Z,112.17
2023-02-01T19:40:21.469Z,112.20
2023-02-01T19:42:50.004Z,112.07
2023-02-01T19:45:17.638Z,112.07
2023-02-01T19:47:44.754Z,111.87
2023-02-01T19:50:21.532Z,111.00
2023-02-01T19:52:49.678Z,112.37
2023-02-01T19:55:16.886Z,112.07
2023-02-01T19:57:44.035Z,111.90
2023-02-01T20:00:15.377Z,112.47
2023-02-01T20:02:43.596Z,111.50
2023-02-01T20:05:11.676Z,112.37
2023-02-01T20:07:39.478Z,112.37
2023-02-01T20:10:08.284Z,111.87
2023-02-01T20:12:35.721Z,112.37
2023-02-01T20:15:04.774Z,111.70
2023-02-01T20:17:32.895Z,112.07
2023-02-01T20:20:00.286Z,112.77
2023-02-01T20:22:27.390Z,111.87
2023-02-01T20:24:57.326Z,112.40
2023-02-01T20:27:25.833Z,112.47
2023-02-01T20:29:52.862Z,112.50
2023-02-01T20:32:20.484Z,111.63
2023-02-01T20:34:50.942Z,112.63
2023-02-01T20:37:18.660Z,111.77
2023-02-01T20:39:45.640Z,112.67
2023-02-01T20:42:12.982Z,110.67
2023-02-01T20:44:39.988Z,112.47
2023-02-01T20:47:07.021Z,112.30
2023-02-01T20:49:35.200Z,112.57
2023-02-01T20:52:02.318Z,111.97
2023-02-01T20:54:29.296Z,112.60
2023-02-01T20:56:56.739Z,110.87
2023-02-01T20:59:24.145Z,112.00
2023-02-01T21:01:54.079Z,111.70
2023-02-01T21:04:27.263Z,111.90
2023-02-01T21:06:59.666Z,111.40
2023-02-01T21:09:27.482Z,111.00
2023-02-01T21:11:54.886Z,111.40
2023-02-01T21:14:22.715Z,111.87
2023-02-01T21:16:49.694Z,112.00
2023-02-01T21:19:20.117Z,112.27
2023-02-01T21:21:47.523Z,111.13
2023-02-01T21:24:14.937Z,112.27
2023-02-01T21:26:43.925Z,111.57
2023-02-01T21:29:14.871Z,112.37
2023-02-01T21:31:43.016Z,111.70
2023-02-01T21:34:12.098Z,112.27
2023-02-01T21:36:39.080Z,112.30
2023-02-01T21:39:10.641Z,111.20
2023-02-01T21:41:57.171Z,112.57
2023-02-01T21:44:24.838Z,112.07
2023-02-01T21:46:51.963Z,112.70
2023-02-01T21:49:23.653Z,111.50
2023-02-01T21:51:50.882Z,112.17
2023-02-01T21:54:18.408Z,112.33
2023-02-01T21:56:45.845Z,112.07
2023-02-01T21:59:13.231Z,112.17
2023-02-01T22:01:41.968Z,112.37
2023-02-01T22:04:10.273Z,110.77
2023-02-01T22:06:46.133Z,110.90
2023-02-01T22:09:22.013Z,111.80
2023-02-01T22:11:50.800Z,111.97
2023-02-01T22:14:18.965Z,112.13
2023-02-01T22:16:47.121Z,111.67
2023-02-01T22:19:14.991Z,111.10
2023-02-01T22:21:48.273Z,111.10
2023-02-01T22:24:20.826Z,111.27
2023-02-01T22:26:49.115Z,111.67
2023-02-01T22:29:19.087Z,111.67
2023-02-01T22:31:47.185Z,112.10
2023-02-01T22:34:15.397Z,111.00
2023-02-01T22:36:43.289Z,111.87
2023-02-01T22:39:10.920Z,111.67
2023-02-01T22:41:38.278Z,110.27
2023-02-01T22:44:06.597Z,112.13
2023-02-01T22:46:33.952Z,111.30
2023-02-01T22:49:02.033Z,110.93
2023-02-01T22:51:31.977Z,111.83
2023-02-01T22:53:59.921Z,112.30
2023-02-01T22:56:31.537Z,112.20
2023-02-01T22:59:06.504Z,111.97
2023-02-01T23:01:35.045Z,110.93
2023-02-01T23:04:06.602Z,112.33
2023-02-01T23:06:34.859Z,111.60
2023-02-01T23:09:20.244Z,112.37
2023-02-01T23:11:48.404Z,112.10
2023-02-01T23:14:16.559Z,111.50
2023-02-01T23:16:49.686Z,112.57
2023-02-01T23:19:18.308Z,110.97
2023-02-01T23:21:45.960Z,111.93
2023-02-01T23:24:13.201Z,112.00
2023-02-01T23:26:40.795Z,112.27
2023-02-01T23:29:09.976Z,109.60
2023-02-01T23:31:37.444Z,112.53
2023-02-01T23:34:05.037Z,112.27
2023-02-01T23:36:33.900Z,111.70
2023-02-01T23:39:01.829Z,110.57
2023-02-01T23:41:29.976Z,111.97
2023-02-01T23:44:00.431Z,111.97
2023-02-01T23:46:44.428Z,112.50
2023-02-01T23:49:11.556Z,111.73
2023-02-01T23:51:38.828Z,110.37
2023-02-01T23:54:09.211Z,111.60
2023-02-01T23:56:43.637Z,112.07
2023-02-01T23:59:22.095Z,112.17
